Terminal Aerodrome Forecast
Issued by NWS Sioux Falls, SD

Home | Current Version | Previous Version | Text Only | Print | Product List | Glossary On
Versions: 1 2 3 4 5 6 7 8 9 10 11 12 13 14 15 16 17
000
FTUS43 KFSD 191141
TAFFSD
TAF
KFSD 191141Z 1912/2012 15010KT 4SM BR OVC003
      TEMPO 1912/1914 2SM BR
     FM191600 15014KT P6SM OVC008
     FM191700 15015G23KT P6SM OVC012
     FM192000 15019G27KT P6SM BKN150
     FM192200 15020G28KT P6SM SCT030
     FM200400 16015G23KT P6SM VCTS BKN080CB
     FM200600 32012KT P6SM OVC035
     FM200900 32006KT P6SM SCT130=

USA.gov is the U.S. government's official web portal to all federal, state and local government web resources and services.